sensor_id;sensor_type;location;lat;lon;timestamp;P1;durP1;ratioP1;P2;durP2;ratioP2
33716;SDS011;20046;50.746;7.072;2024-01-15T00:01:26;39.78;;;13.43;;
33716;SDS011;20046;50.746;7.072;2024-01-15T00:03:52;31.98;;;13.15;;
33716;SDS011;20046;50.746;7.072;2024-01-15T00:06:17;38.10;;;13.68;;
33716;SDS011;20046;50.746;7.072;2024-01-15T00:08:43;35.40;;;13.80;;
33716;SDS011;20046;50.746;7.072;2024-01-15T00:11:08;30.60;;;12.80;;
33716;SDS011;20046;50.746;7.072;2024-01-15T00:13:34;32.40;;;13.60;;
33716;SDS011;20046;50.746;7.072;2024-01-15T00:15:59;32.38;;;13.15;;
33716;SDS011;20046;50.746;7.072;2024-01-15T00:18:25;37.97;;;12.75;;
33716;SDS011;20046;50.746;7.072;2024-01-15T00:20:50;33.63;;;12.43;;
33716;SDS011;20046;50.746;7.072;2024-01-15T00:23:16;33.97;;;13.75;;
33716;SDS011;20046;50.746;7.072;2024-01-15T00:25:42;31.88;;;11.68;;
33716;SDS011;20046;50.746;7.072;2024-01-15T00:28:07;32.35;;;12.80;;
33716;SDS011;20046;50.746;7.072;2024-01-15T00:30:33;28.65;;;11.68;;
33716;SDS011;20046;50.746;7.072;2024-01-15T00:32:58;32.78;;;13.48;;
33716;SDS011;20046;50.746;7.072;2024-01-15T00:35:24;31.90;;;12.77;;
33716;SDS011;20046;50.746;7.072;2024-01-15T00:37:49;36.35;;;13.23;;
33716;SDS011;20046;50.746;7.072;2024-01-15T00:40:15;38.35;;;13.40;;
33716;SDS011;20046;50.746;7.072;2024-01-15T00:42:41;38.33;;;12.70;;
33716;SDS011;20046;50.746;7.072;2024-01-15T00:45:06;37.22;;;12.57;;
33716;SDS011;20046;50.746;7.072;2024-01-15T00:47:33;34.40;;;12.68;;
33716;SDS011;20046;50.746;7.072;2024-01-15T00:49:59;36.30;;;13.30;;
33716;SDS011;20046;50.746;7.072;2024-01-15T00:52:25;42.13;;;13.70;;
33716;SDS011;20046;50.746;7.072;2024-01-15T00:54:50;41.78;;;14.73;;
33716;SDS011;20046;50.746;7.072;2024-01-15T00:57:16;38.47;;;14.38;;
33716;SDS011;20046;50.746;7.072;2024-01-15T00:59:44;37.65;;;14.13;;
33716;SDS011;20046;50.746;7.072;2024-01-15T01:02:09;37.85;;;14.30;;
33716;SDS011;20046;50.746;7.072;2024-01-15T01:04:35;36.92;;;14.95;;
33716;SDS011;20046;50.746;7.072;2024-01-15T01:07:00;38.50;;;14.50;;
33716;SDS011;20046;50.746;7.072;2024-01-15T01:09:26;35.80;;;12.70;;
33716;SDS011;20046;50.746;7.072;2024-01-15T01:11:55;42.08;;;14.93;;
33716;SDS011;20046;50.746;7.072;2024-01-15T01:14:21;33.70;;;12.95;;
33716;SDS011;20046;50.746;7.072;2024-01-15T01:16:46;39.03;;;14.35;;
33716;SDS011;20046;50.746;7.072;2024-01-15T01:19:12;34.35;;;13.23;;
33716;SDS011;20046;50.746;7.072;2024-01-15T01:21:38;37.45;;;13.70;;
33716;SDS011;20046;50.746;7.072;2024-01-15T01:24:03;36.65;;;14.30;;
33716;SDS011;20046;50.746;7.072;2024-01-15T01:26:29;37.08;;;14.27;;
33716;SDS011;20046;50.746;7.072;2024-01-15T01:28:55;36.40;;;14.48;;
33716;SDS011;20046;50.746;7.072;2024-01-15T01:31:20;36.42;;;14.10;;
33716;SDS011;20046;50.746;7.072;2024-01-15T01:33:46;35.40;;;14.75;;
33716;SDS011;20046;50.746;7.072;2024-01-15T01:36:11;41.70;;;15.00;;
33716;SDS011;20046;50.746;7.072;2024-01-15T01:38:37;40.92;;;14.40;;
33716;SDS011;20046;50.746;7.072;2024-01-15T01:41:05;36.30;;;14.70;;
33716;SDS011;20046;50.746;7.072;2024-01-15T01:43:30;40.17;;;15.73;;
33716;SDS011;20046;50.746;7.072;2024-01-15T01:45:56;42.58;;;16.00;;
33716;SDS011;20046;50.746;7.072;2024-01-15T01:48:23;36.90;;;15.88;;
33716;SDS011;20046;50.746;7.072;2024-01-15T01:50:51;45.10;;;16.98;;
33716;SDS011;20046;50.746;7.072;2024-01-15T01:53:19;41.25;;;15.50;;
33716;SDS011;20046;50.746;7.072;2024-01-15T01:55:45;48.85;;;16.40;;
33716;SDS011;20046;50.746;7.072;2024-01-15T01:58:13;46.08;;;16.02;;
33716;SDS011;20046;50.746;7.072;2024-01-15T02:00:39;46.80;;;16.35;;
33716;SDS011;20046;50.746;7.072;2024-01-15T02:03:05;46.13;;;17.05;;
33716;SDS011;20046;50.746;7.072;2024-01-15T02:05:31;40.05;;;16.02;;
33716;SDS011;20046;50.746;7.072;2024-01-15T02:07:57;38.08;;;15.43;;
33716;SDS011;20046;50.746;7.072;2024-01-15T02:10:23;45.83;;;17.02;;
33716;SDS011;20046;50.746;7.072;2024-01-15T02:12:48;39.63;;;15.57;;
33716;SDS011;20046;50.746;7.072;2024-01-15T02:15:14;45.88;;;16.90;;
33716;SDS011;20046;50.746;7.072;2024-01-15T02:17:59;47.35;;;17.85;;
33716;SDS011;20046;50.746;7.072;2024-01-15T02:20:26;46.13;;;16.27;;
33716;SDS011;20046;50.746;7.072;2024-01-15T02:22:52;48.85;;;17.10;;
33716;SDS011;20046;50.746;7.072;2024-01-15T02:25:18;41.88;;;16.38;;
33716;SDS011;20046;50.746;7.072;2024-01-15T02:27:44;41.40;;;16.58;;
33716;SDS011;20046;50.746;7.072;2024-01-15T02:30:11;41.33;;;16.10;;
33716;SDS011;20046;50.746;7.072;2024-01-15T02:32:38;42.55;;;16.80;;
33716;SDS011;20046;50.746;7.072;2024-01-15T02:35:04;44.00;;;16.42;;
33716;SDS011;20046;50.746;7.072;2024-01-15T02:37:30;49.67;;;16.48;;
33716;SDS011;20046;50.746;7.072;2024-01-15T02:39:55;43.50;;;16.33;;
33716;SDS011;20046;50.746;7.072;2024-01-15T02:42:21;42.00;;;16.95;;
33716;SDS011;20046;50.746;7.072;2024-01-15T02:44:46;43.35;;;15.90;;
33716;SDS011;20046;50.746;7.072;2024-01-15T02:47:13;41.30;;;15.85;;
33716;SDS011;20046;50.746;7.072;2024-01-15T02:49:39;39.00;;;16.55;;
33716;SDS011;20046;50.746;7.072;2024-01-15T02:52:05;44.25;;;16.38;;
33716;SDS011;20046;50.746;7.072;2024-01-15T02:54:31;39.22;;;16.55;;
33716;SDS011;20046;50.746;7.072;2024-01-15T02:56:56;44.72;;;16.40;;
33716;SDS011;20046;50.746;7.072;2024-01-15T02:59:22;42.78;;;15.93;;
33716;SDS011;20046;50.746;7.072;2024-01-15T03:01:47;44.30;;;17.23;;
33716;SDS011;20046;50.746;7.072;2024-01-15T03:04:13;49.67;;;17.85;;
33716;SDS011;20046;50.746;7.072;2024-01-15T03:06:38;41.05;;;17.23;;
33716;SDS011;20046;50.746;7.072;2024-01-15T03:09:04;40.80;;;17.25;;
33716;SDS011;20046;50.746;7.072;2024-01-15T03:11:36;38.33;;;16.55;;
33716;SDS011;20046;50.746;7.072;2024-01-15T03:14:03;43.28;;;18.02;;
33716;SDS011;20046;50.746;7.072;2024-01-15T03:16:28;40.50;;;15.95;;
33716;SDS011;20046;50.746;7.072;2024-01-15T03:18:54;42.35;;;16.85;;
33716;SDS011;20046;50.746;7.072;2024-01-15T03:21:19;43.60;;;17.75;;
33716;SDS011;20046;50.746;7.072;2024-01-15T03:23:45;40.33;;;16.05;;
33716;SDS011;20046;50.746;7.072;2024-01-15T03:26:10;41.05;;;17.27;;
33716;SDS011;20046;50.746;7.072;2024-01-15T03:28:36;35.33;;;15.77;;
33716;SDS011;20046;50.746;7.072;2024-01-15T03:31:01;40.97;;;17.35;;
33716;SDS011;20046;50.746;7.072;2024-01-15T03:33:27;37.10;;;14.60;;
33716;SDS011;20046;50.746;7.072;2024-01-15T03:35:53;39.65;;;15.80;;
33716;SDS011;20046;50.746;7.072;2024-01-15T03:38:18;41.20;;;15.30;;
33716;SDS011;20046;50.746;7.072;2024-01-15T03:40:44;34.42;;;16.23;;
33716;SDS011;20046;50.746;7.072;2024-01-15T03:43:09;34.28;;;14.50;;
33716;SDS011;20046;50.746;7.072;2024-01-15T03:45:35;40.05;;;15.93;;
33716;SDS011;20046;50.746;7.072;2024-01-15T03:48:00;35.58;;;15.27;;
33716;SDS011;20046;50.746;7.072;2024-01-15T03:50:26;37.47;;;15.82;;
33716;SDS011;20046;50.746;7.072;2024-01-15T03:52:51;36.38;;;15.30;;
33716;SDS011;20046;50.746;7.072;2024-01-15T03:55:17;37.55;;;15.55;;
33716;SDS011;20046;50.746;7.072;2024-01-15T03:57:42;38.22;;;16.58;;
33716;SDS011;20046;50.746;7.072;2024-01-15T04:00:08;40.20;;;16.58;;
33716;SDS011;20046;50.746;7.072;2024-01-15T04:02:34;33.30;;;15.35;;
33716;SDS011;20046;50.746;7.072;2024-01-15T04:05:00;36.72;;;15.57;;
33716;SDS011;20046;50.746;7.072;2024-01-15T04:07:25;34.38;;;16.33;;
33716;SDS011;20046;50.746;7.072;2024-01-15T04:09:51;35.03;;;15.95;;
33716;SDS011;20046;50.746;7.072;2024-01-15T04:12:16;39.67;;;16.05;;
33716;SDS011;20046;50.746;7.072;2024-01-15T04:14:42;37.28;;;15.50;;
33716;SDS011;20046;50.746;7.072;2024-01-15T04:17:08;41.35;;;17.02;;
33716;SDS011;20046;50.746;7.072;2024-01-15T04:19:33;32.28;;;15.38;;
33716;SDS011;20046;50.746;7.072;2024-01-15T04:21:59;33.70;;;16.00;;
33716;SDS011;20046;50.746;7.072;2024-01-15T04:24:24;33.40;;;15.60;;
33716;SDS011;20046;50.746;7.072;2024-01-15T04:26:50;36.95;;;16.55;;
33716;SDS011;20046;50.746;7.072;2024-01-15T04:29:16;35.10;;;15.27;;
33716;SDS011;20046;50.746;7.072;2024-01-15T04:31:41;37.40;;;15.48;;
33716;SDS011;20046;50.746;7.072;2024-01-15T04:34:07;44.67;;;15.77;;
33716;SDS011;20046;50.746;7.072;2024-01-15T04:36:38;34.80;;;15.63;;
33716;SDS011;20046;50.746;7.072;2024-01-15T04:39:04;35.00;;;14.70;;
33716;SDS011;20046;50.746;7.072;2024-01-15T04:41:29;32.95;;;14.65;;
33716;SDS011;20046;50.746;7.072;2024-01-15T04:43:55;34.17;;;15.30;;
33716;SDS011;20046;50.746;7.072;2024-01-15T04:46:20;33.15;;;14.00;;
33716;SDS011;20046;50.746;7.072;2024-01-15T04:48:46;30.10;;;14.02;;
33716;SDS011;20046;50.746;7.072;2024-01-15T04:51:12;31.02;;;12.40;;
33716;SDS011;20046;50.746;7.072;2024-01-15T04:53:37;31.25;;;13.40;;
33716;SDS011;20046;50.746;7.072;2024-01-15T04:56:03;29.92;;;13.18;;
33716;SDS011;20046;50.746;7.072;2024-01-15T04:58:29;32.38;;;14.45;;
33716;SDS011;20046;50.746;7.072;2024-01-15T05:00:54;32.08;;;13.85;;
33716;SDS011;20046;50.746;7.072;2024-01-15T05:03:20;30.73;;;13.60;;
33716;SDS011;20046;50.746;7.072;2024-01-15T05:05:46;30.60;;;12.60;;
33716;SDS011;20046;50.746;7.072;2024-01-15T05:08:11;30.50;;;13.75;;
33716;SDS011;20046;50.746;7.072;2024-01-15T05:10:37;29.27;;;12.55;;
33716;SDS011;20046;50.746;7.072;2024-01-15T05:13:02;28.85;;;11.98;;
33716;SDS011;20046;50.746;7.072;2024-01-15T05:15:28;29.23;;;12.95;;
33716;SDS011;20046;50.746;7.072;2024-01-15T05:17:54;27.75;;;13.50;;
33716;SDS011;20046;50.746;7.072;2024-01-15T05:20:20;27.35;;;12.43;;
33716;SDS011;20046;50.746;7.072;2024-01-15T05:22:46;26.80;;;12.20;;
33716;SDS011;20046;50.746;7.072;2024-01-15T05:25:11;31.95;;;14.27;;
33716;SDS011;20046;50.746;7.072;2024-01-15T05:27:37;31.38;;;12.98;;
33716;SDS011;20046;50.746;7.072;2024-01-15T05:30:03;29.10;;;12.88;;
33716;SDS011;20046;50.746;7.072;2024-01-15T05:32:29;36.85;;;13.38;;
33716;SDS011;20046;50.746;7.072;2024-01-15T05:34:54;29.90;;;13.13;;
33716;SDS011;20046;50.746;7.072;2024-01-15T05:37:20;28.95;;;13.23;;
33716;SDS011;20046;50.746;7.072;2024-01-15T05:39:45;27.35;;;12.18;;
33716;SDS011;20046;50.746;7.072;2024-01-15T05:42:11;32.33;;;13.88;;
33716;SDS011;20046;50.746;7.072;2024-01-15T05:44:36;39.35;;;13.35;;
33716;SDS011;20046;50.746;7.072;2024-01-15T05:47:02;34.70;;;14.30;;
33716;SDS011;20046;50.746;7.072;2024-01-15T05:49:29;29.55;;;12.80;;
33716;SDS011;20046;50.746;7.072;2024-01-15T05:51:54;33.72;;;14.02;;
33716;SDS011;20046;50.746;7.072;2024-01-15T05:54:20;32.40;;;12.98;;
33716;SDS011;20046;50.746;7.072;2024-01-15T05:56:45;31.77;;;13.13;;
33716;SDS011;20046;50.746;7.072;2024-01-15T05:59:11;34.15;;;14.70;;
33716;SDS011;20046;50.746;7.072;2024-01-15T06:01:37;34.05;;;13.38;;
33716;SDS011;20046;50.746;7.072;2024-01-15T06:04:02;28.30;;;12.82;;
33716;SDS011;20046;50.746;7.072;2024-01-15T06:06:28;30.50;;;13.10;;
33716;SDS011;20046;50.746;7.072;2024-01-15T06:08:53;30.88;;;14.48;;
33716;SDS011;20046;50.746;7.072;2024-01-15T06:11:19;32.45;;;14.40;;
33716;SDS011;20046;50.746;7.072;2024-01-15T06:13:44;32.88;;;13.70;;
33716;SDS011;20046;50.746;7.072;2024-01-15T06:16:17;32.28;;;14.18;;
33716;SDS011;20046;50.746;7.072;2024-01-15T06:18:45;35.92;;;14.45;;
33716;SDS011;20046;50.746;7.072;2024-01-15T06:21:10;36.05;;;14.38;;
33716;SDS011;20046;50.746;7.072;2024-01-15T06:23:37;38.22;;;15.73;;
33716;SDS011;20046;50.746;7.072;2024-01-15T06:26:03;32.03;;;13.65;;
33716;SDS011;20046;50.746;7.072;2024-01-15T06:28:29;33.63;;;14.50;;
33716;SDS011;20046;50.746;7.072;2024-01-15T06:30:55;37.58;;;15.10;;
33716;SDS011;20046;50.746;7.072;2024-01-15T06:33:20;36.97;;;14.63;;
33716;SDS011;20046;50.746;7.072;2024-01-15T06:35:46;37.13;;;15.20;;
33716;SDS011;20046;50.746;7.072;2024-01-15T06:38:12;40.55;;;15.18;;
33716;SDS011;20046;50.746;7.072;2024-01-15T06:40:38;30.35;;;13.35;;
33716;SDS011;20046;50.746;7.072;2024-01-15T06:43:06;35.17;;;14.50;;
33716;SDS011;20046;50.746;7.072;2024-01-15T06:45:32;30.92;;;13.48;;
33716;SDS011;20046;50.746;7.072;2024-01-15T06:47:57;31.23;;;14.40;;
33716;SDS011;20046;50.746;7.072;2024-01-15T06:50:23;33.92;;;13.60;;
33716;SDS011;20046;50.746;7.072;2024-01-15T06:52:49;30.95;;;14.23;;
33716;SDS011;20046;50.746;7.072;2024-01-15T06:55:14;30.85;;;14.07;;
33716;SDS011;20046;50.746;7.072;2024-01-15T06:57:40;33.75;;;14.57;;
33716;SDS011;20046;50.746;7.072;2024-01-15T07:00:06;40.10;;;16.33;;
33716;SDS011;20046;50.746;7.072;2024-01-15T07:02:33;37.17;;;15.80;;
33716;SDS011;20046;50.746;7.072;2024-01-15T07:04:58;29.95;;;13.68;;
33716;SDS011;20046;50.746;7.072;2024-01-15T07:07:24;35.92;;;14.95;;
33716;SDS011;20046;50.746;7.072;2024-01-15T07:09:50;32.67;;;14.85;;
33716;SDS011;20046;50.746;7.072;2024-01-15T07:12:17;33.20;;;14.85;;
33716;SDS011;20046;50.746;7.072;2024-01-15T07:14:42;34.47;;;14.80;;
33716;SDS011;20046;50.746;7.072;2024-01-15T07:17:08;37.90;;;16.42;;
33716;SDS011;20046;50.746;7.072;2024-01-15T07:19:33;40.03;;;16.98;;
33716;SDS011;20046;50.746;7.072;2024-01-15T07:21:59;33.47;;;16.30;;
33716;SDS011;20046;50.746;7.072;2024-01-15T07:24:25;35.08;;;15.07;;
33716;SDS011;20046;50.746;7.072;2024-01-15T07:26:50;38.30;;;17.08;;
33716;SDS011;20046;50.746;7.072;2024-01-15T07:29:16;38.40;;;15.85;;
33716;SDS011;20046;50.746;7.072;2024-01-15T07:31:47;41.45;;;16.77;;
33716;SDS011;20046;50.746;7.072;2024-01-15T07:34:14;42.60;;;16.63;;
33716;SDS011;20046;50.746;7.072;2024-01-15T07:36:39;38.13;;;16.27;;
33716;SDS011;20046;50.746;7.072;2024-01-15T07:39:05;37.17;;;15.57;;
33716;SDS011;20046;50.746;7.072;2024-01-15T07:41:30;31.92;;;14.27;;
33716;SDS011;20046;50.746;7.072;2024-01-15T07:43:56;37.72;;;15.02;;
33716;SDS011;20046;50.746;7.072;2024-01-15T07:46:22;40.88;;;16.33;;
33716;SDS011;20046;50.746;7.072;2024-01-15T07:48:48;37.03;;;14.93;;
33716;SDS011;20046;50.746;7.072;2024-01-15T07:51:16;35.03;;;14.60;;
33716;SDS011;20046;50.746;7.072;2024-01-15T07:53:41;37.33;;;15.65;;
33716;SDS011;20046;50.746;7.072;2024-01-15T07:56:07;40.00;;;14.90;;
33716;SDS011;20046;50.746;7.072;2024-01-15T07:58:33;35.55;;;14.05;;
33716;SDS011;20046;50.746;7.072;2024-01-15T08:00:58;30.35;;;14.05;;
33716;SDS011;20046;50.746;7.072;2024-01-15T08:03:24;30.80;;;13.45;;
33716;SDS011;20046;50.746;7.072;2024-01-15T08:05:49;33.08;;;13.10;;
33716;SDS011;20046;50.746;7.072;2024-01-15T08:08:17;32.95;;;13.82;;
33716;SDS011;20046;50.746;7.072;2024-01-15T08:10:43;31.23;;;14.82;;
33716;SDS011;20046;50.746;7.072;2024-01-15T08:13:09;34.08;;;14.27;;
33716;SDS011;20046;50.746;7.072;2024-01-15T08:15:34;31.20;;;14.75;;
33716;SDS011;20046;50.746;7.072;2024-01-15T08:18:00;32.92;;;14.15;;
33716;SDS011;20046;50.746;7.072;2024-01-15T08:20:25;32.47;;;13.30;;
33716;SDS011;20046;50.746;7.072;2024-01-15T08:22:51;31.17;;;12.98;;
33716;SDS011;20046;50.746;7.072;2024-01-15T08:25:17;29.60;;;11.88;;
33716;SDS011;20046;50.746;7.072;2024-01-15T08:27:43;29.15;;;12.25;;
33716;SDS011;20046;50.746;7.072;2024-01-15T08:30:08;33.28;;;11.25;;
33716;SDS011;20046;50.746;7.072;2024-01-15T08:32:35;26.77;;;11.75;;
33716;SDS011;20046;50.746;7.072;2024-01-15T08:35:05;33.67;;;11.77;;
33716;SDS011;20046;50.746;7.072;2024-01-15T08:37:31;23.55;;;11.57;;
33716;SDS011;20046;50.746;7.072;2024-01-15T08:39:57;34.90;;;12.73;;
33716;SDS011;20046;50.746;7.072;2024-01-15T08:42:22;25.38;;;10.98;;
33716;SDS011;20046;50.746;7.072;2024-01-15T08:44:48;29.35;;;12.18;;
33716;SDS011;20046;50.746;7.072;2024-01-15T08:47:13;34.03;;;12.15;;
33716;SDS011;20046;50.746;7.072;2024-01-15T08:49:39;29.75;;;12.57;;
33716;SDS011;20046;50.746;7.072;2024-01-15T08:52:05;27.45;;;11.63;;
33716;SDS011;20046;50.746;7.072;2024-01-15T08:54:33;28.45;;;11.32;;
33716;SDS011;20046;50.746;7.072;2024-01-15T08:56:59;29.48;;;11.35;;
33716;SDS011;20046;50.746;7.072;2024-01-15T08:59:24;24.30;;;10.63;;
33716;SDS011;20046;50.746;7.072;2024-01-15T09:01:51;29.33;;;10.80;;
33716;SDS011;20046;50.746;7.072;2024-01-15T09:04:17;31.75;;;11.98;;
33716;SDS011;20046;50.746;7.072;2024-01-15T09:06:45;25.77;;;11.20;;
33716;SDS011;20046;50.746;7.072;2024-01-15T09:09:14;31.38;;;12.57;;
33716;SDS011;20046;50.746;7.072;2024-01-15T09:11:42;26.35;;;11.93;;
33716;SDS011;20046;50.746;7.072;2024-01-15T09:14:08;31.17;;;12.45;;
33716;SDS011;20046;50.746;7.072;2024-01-15T09:16:34;29.13;;;12.45;;
33716;SDS011;20046;50.746;7.072;2024-01-15T09:19:00;36.25;;;11.90;;
33716;SDS011;20046;50.746;7.072;2024-01-15T09:21:25;26.38;;;12.90;;
33716;SDS011;20046;50.746;7.072;2024-01-15T09:23:51;24.20;;;11.02;;
33716;SDS011;20046;50.746;7.072;2024-01-15T09:26:17;20.45;;;9.77;;
33716;SDS011;20046;50.746;7.072;2024-01-15T09:28:42;34.15;;;11.25;;
33716;SDS011;20046;50.746;7.072;2024-01-15T09:31:08;22.58;;;10.75;;
33716;SDS011;20046;50.746;7.072;2024-01-15T09:33:34;27.40;;;9.88;;
33716;SDS011;20046;50.746;7.072;2024-01-15T09:36:03;22.95;;;9.70;;
33716;SDS011;20046;50.746;7.072;2024-01-15T09:38:31;24.52;;;8.95;;
33716;SDS011;20046;50.746;7.072;2024-01-15T09:40:57;17.33;;;8.68;;
33716;SDS011;20046;50.746;7.072;2024-01-15T09:43:23;20.73;;;9.45;;
33716;SDS011;20046;50.746;7.072;2024-01-15T09:45:49;21.83;;;9.40;;
33716;SDS011;20046;50.746;7.072;2024-01-15T09:48:15;20.23;;;8.38;;
33716;SDS011;20046;50.746;7.072;2024-01-15T09:50:41;27.52;;;9.85;;
33716;SDS011;20046;50.746;7.072;2024-01-15T09:53:07;20.40;;;8.30;;
33716;SDS011;20046;50.746;7.072;2024-01-15T09:55:34;18.75;;;8.20;;
33716;SDS011;20046;50.746;7.072;2024-01-15T09:58:04;17.00;;;8.18;;
33716;SDS011;20046;50.746;7.072;2024-01-15T10:00:30;26.15;;;8.88;;
33716;SDS011;20046;50.746;7.072;2024-01-15T10:02:58;19.33;;;10.80;;
33716;SDS011;20046;50.746;7.072;2024-01-15T10:05:27;17.98;;;9.38;;
33716;SDS011;20046;50.746;7.072;2024-01-15T10:07:53;20.13;;;9.20;;
33716;SDS011;20046;50.746;7.072;2024-01-15T10:10:21;18.52;;;9.50;;
33716;SDS011;20046;50.746;7.072;2024-01-15T10:12:47;15.77;;;8.73;;
33716;SDS011;20046;50.746;7.072;2024-01-15T10:15:13;17.75;;;9.30;;
33716;SDS011;20046;50.746;7.072;2024-01-15T10:17:39;16.15;;;9.52;;
33716;SDS011;20046;50.746;7.072;2024-01-15T10:20:11;16.27;;;8.18;;
33716;SDS011;20046;50.746;7.072;2024-01-15T10:22:43;18.92;;;8.70;;
33716;SDS011;20046;50.746;7.072;2024-01-15T10:25:11;19.13;;;8.63;;
33716;SDS011;20046;50.746;7.072;2024-01-15T10:27:38;21.42;;;9.13;;
33716;SDS011;20046;50.746;7.072;2024-01-15T10:30:05;24.35;;;9.43;;
33716;SDS011;20046;50.746;7.072;2024-01-15T10:32:31;20.15;;;10.02;;
33716;SDS011;20046;50.746;7.072;2024-01-15T10:34:57;24.08;;;9.27;;
33716;SDS011;20046;50.746;7.072;2024-01-15T10:37:23;17.27;;;9.40;;
33716;SDS011;20046;50.746;7.072;2024-01-15T10:39:49;17.08;;;9.75;;
33716;SDS011;20046;50.746;7.072;2024-01-15T10:42:15;24.35;;;9.50;;
33716;SDS011;20046;50.746;7.072;2024-01-15T10:44:43;22.05;;;10.50;;
33716;SDS011;20046;50.746;7.072;2024-01-15T10:47:11;16.45;;;10.32;;
33716;SDS011;20046;50.746;7.072;2024-01-15T10:49:38;16.95;;;10.05;;
33716;SDS011;20046;50.746;7.072;2024-01-15T10:52:04;16.88;;;10.70;;
33716;SDS011;20046;50.746;7.072;2024-01-15T10:54:30;18.40;;;9.85;;
33716;SDS011;20046;50.746;7.072;2024-01-15T10:56:57;15.32;;;9.35;;
33716;SDS011;20046;50.746;7.072;2024-01-15T10:59:22;16.48;;;7.78;;
33716;SDS011;20046;50.746;7.072;2024-01-15T11:01:51;16.77;;;8.15;;
33716;SDS011;20046;50.746;7.072;2024-01-15T11:04:19;14.18;;;8.50;;
33716;SDS011;20046;50.746;7.072;2024-01-15T11:06:47;17.25;;;7.93;;
33716;SDS011;20046;50.746;7.072;2024-01-15T11:09:15;16.58;;;8.07;;
33716;SDS011;20046;50.746;7.072;2024-01-15T11:11:46;15.93;;;7.53;;
33716;SDS011;20046;50.746;7.072;2024-01-15T11:17:00;13.57;;;7.30;;
33716;SDS011;20046;50.746;7.072;2024-01-15T11:19:26;14.63;;;7.40;;
33716;SDS011;20046;50.746;7.072;2024-01-15T11:22:07;14.88;;;8.25;;
33716;SDS011;20046;50.746;7.072;2024-01-15T11:25:01;13.70;;;7.88;;
33716;SDS011;20046;50.746;7.072;2024-01-15T11:27:42;17.77;;;8.95;;
33716;SDS011;20046;50.746;7.072;2024-01-15T11:30:18;19.15;;;8.85;;
33716;SDS011;20046;50.746;7.072;2024-01-15T11:32:47;16.63;;;9.65;;
33716;SDS011;20046;50.746;7.072;2024-01-15T11:35:13;18.65;;;10.02;;
33716;SDS011;20046;50.746;7.072;2024-01-15T11:40:18;16.77;;;9.10;;
33716;SDS011;20046;50.746;7.072;2024-01-15T11:42:45;15.18;;;9.27;;
33716;SDS011;20046;50.746;7.072;2024-01-15T11:45:12;20.60;;;10.07;;
33716;SDS011;20046;50.746;7.072;2024-01-15T11:47:58;18.38;;;9.65;;
33716;SDS011;20046;50.746;7.072;2024-01-15T11:50:40;14.25;;;9.15;;
33716;SDS011;20046;50.746;7.072;2024-01-15T11:53:54;18.42;;;10.43;;
33716;SDS011;20046;50.746;7.072;2024-01-15T11:56:02;17.90;;;10.30;;
33716;SDS011;20046;50.746;7.072;2024-01-15T11:58:28;21.83;;;10.82;;
33716;SDS011;20046;50.746;7.072;2024-01-15T12:00:54;18.75;;;10.75;;
33716;SDS011;20046;50.746;7.072;2024-01-15T12:03:21;18.27;;;10.73;;
33716;SDS011;20046;50.746;7.072;2024-01-15T12:05:47;20.75;;;11.18;;
33716;SDS011;20046;50.746;7.072;2024-01-15T12:08:13;24.55;;;11.60;;
33716;SDS011;20046;50.746;7.072;2024-01-15T12:10:39;20.25;;;11.10;;
33716;SDS011;20046;50.746;7.072;2024-01-15T12:15:38;21.23;;;10.32;;
33716;SDS011;20046;50.746;7.072;2024-01-15T12:18:12;19.35;;;10.75;;
33716;SDS011;20046;50.746;7.072;2024-01-15T12:20:39;24.02;;;11.15;;
33716;SDS011;20046;50.746;7.072;2024-01-15T12:23:05;22.13;;;10.27;;
33716;SDS011;20046;50.746;7.072;2024-01-15T12:25:31;16.98;;;9.63;;
33716;SDS011;20046;50.746;7.072;2024-01-15T12:27:58;20.35;;;9.63;;
33716;SDS011;20046;50.746;7.072;2024-01-15T12:30:28;18.77;;;9.00;;
33716;SDS011;20046;50.746;7.072;2024-01-15T12:32:56;28.45;;;10.27;;
33716;SDS011;20046;50.746;7.072;2024-01-15T12:35:23;18.92;;;9.35;;
33716;SDS011;20046;50.746;7.072;2024-01-15T12:37:49;19.77;;;9.20;;
33716;SDS011;20046;50.746;7.072;2024-01-15T12:40:18;16.08;;;8.13;;
33716;SDS011;20046;50.746;7.072;2024-01-15T12:42:44;20.20;;;8.43;;
33716;SDS011;20046;50.746;7.072;2024-01-15T12:45:11;18.02;;;9.00;;
33716;SDS011;20046;50.746;7.072;2024-01-15T12:47:37;16.92;;;8.10;;
33716;SDS011;20046;50.746;7.072;2024-01-15T12:50:07;15.95;;;5.15;;
33716;SDS011;20046;50.746;7.072;2024-01-15T12:52:33;15.20;;;5.13;;
33716;SDS011;20046;50.746;7.072;2024-01-15T12:54:59;18.38;;;4.75;;
33716;SDS011;20046;50.746;7.072;2024-01-15T12:57:25;12.88;;;4.97;;
33716;SDS011;20046;50.746;7.072;2024-01-15T12:59:50;13.32;;;4.25;;
33716;SDS011;20046;50.746;7.072;2024-01-15T13:02:16;17.63;;;5.00;;
33716;SDS011;20046;50.746;7.072;2024-01-15T13:04:42;19.48;;;5.10;;
33716;SDS011;20046;50.746;7.072;2024-01-15T13:07:08;15.30;;;5.05;;
33716;SDS011;20046;50.746;7.072;2024-01-15T13:09:34;12.10;;;5.85;;
33716;SDS011;20046;50.746;7.072;2024-01-15T13:12:01;18.52;;;5.47;;
33716;SDS011;20046;50.746;7.072;2024-01-15T13:14:27;26.55;;;6.20;;
33716;SDS011;20046;50.746;7.072;2024-01-15T13:16:53;15.20;;;4.90;;
33716;SDS011;20046;50.746;7.072;2024-01-15T13:19:19;17.13;;;4.90;;
33716;SDS011;20046;50.746;7.072;2024-01-15T13:21:46;14.60;;;5.00;;
33716;SDS011;20046;50.746;7.072;2024-01-15T13:24:11;13.88;;;4.53;;
33716;SDS011;20046;50.746;7.072;2024-01-15T13:26:37;15.68;;;4.47;;
33716;SDS011;20046;50.746;7.072;2024-01-15T13:29:03;15.30;;;5.38;;
33716;SDS011;20046;50.746;7.072;2024-01-15T13:31:29;13.05;;;4.13;;
33716;SDS011;20046;50.746;7.072;2024-01-15T13:33:55;8.02;;;3.80;;
33716;SDS011;20046;50.746;7.072;2024-01-15T13:36:21;11.52;;;4.07;;
33716;SDS011;20046;50.746;7.072;2024-01-15T13:38:48;14.15;;;4.25;;
33716;SDS011;20046;50.746;7.072;2024-01-15T13:41:14;12.82;;;4.20;;
33716;SDS011;20046;50.746;7.072;2024-01-15T13:43:40;11.82;;;4.95;;
33716;SDS011;20046;50.746;7.072;2024-01-15T13:46:06;10.85;;;3.72;;
33716;SDS011;20046;50.746;7.072;2024-01-15T13:48:32;14.60;;;3.85;;
33716;SDS011;20046;50.746;7.072;2024-01-15T13:50:58;14.07;;;4.50;;
33716;SDS011;20046;50.746;7.072;2024-01-15T13:53:24;11.60;;;4.40;;
33716;SDS011;20046;50.746;7.072;2024-01-15T13:55:50;10.25;;;4.55;;
33716;SDS011;20046;50.746;7.072;2024-01-15T13:58:15;16.52;;;5.50;;
33716;SDS011;20046;50.746;7.072;2024-01-15T14:00:43;11.73;;;4.18;;
33716;SDS011;20046;50.746;7.072;2024-01-15T14:03:09;13.48;;;4.60;;
33716;SDS011;20046;50.746;7.072;2024-01-15T14:05:34;11.30;;;3.92;;
33716;SDS011;20046;50.746;7.072;2024-01-15T14:08:00;10.20;;;4.97;;
33716;SDS011;20046;50.746;7.072;2024-01-15T14:10:25;9.77;;;3.92;;
33716;SDS011;20046;50.746;7.072;2024-01-15T14:12:51;7.03;;;4.65;;
33716;SDS011;20046;50.746;7.072;2024-01-15T14:15:16;6.63;;;3.95;;
33716;SDS011;20046;50.746;7.072;2024-01-15T14:17:44;8.90;;;4.43;;
33716;SDS011;20046;50.746;7.072;2024-01-15T14:20:09;8.75;;;4.40;;
33716;SDS011;20046;50.746;7.072;2024-01-15T14:22:35;8.80;;;3.65;;
33716;SDS011;20046;50.746;7.072;2024-01-15T14:25:01;7.90;;;4.32;;
33716;SDS011;20046;50.746;7.072;2024-01-15T14:27:26;6.47;;;3.65;;
33716;SDS011;20046;50.746;7.072;2024-01-15T14:29:52;7.03;;;3.78;;